Time;durP1;ratioP1;P1;durP2;ratioP2;P2;SDS_P1;SDS_P2;PMS_P1;PMS_P2;Temp;Humidity;BMP_temperature;BMP_pressure;BME280_temperature;BME280_humidity;BME280_pressure;Samples;Min_cycle;Max_cycle;Signal;HPM_P1;HPM_P2
2020/12/17 00:00:49;;;;;;;;;;;21.60;51.70;;;;;;5054960;28;1902;-63
2020/12/17 00:03:14;;;;;;;;;;;21.60;51.80;;;;;;5055120;28;1149;-65
2020/12/17 00:05:40;;;;;;;;;;;21.60;51.80;;;;;;5054745;28;1198;-63
2020/12/17 00:08:05;;;;;;;;;;;21.60;51.80;;;;;;5054767;28;1301;-62
2020/12/17 00:10:31;;;;;;;;;;;21.50;51.80;;;;;;5036897;28;1175;-63
2020/12/17 00:12:57;;;;;;;;;;;21.50;51.90;;;;;;5036872;28;1339;-64
2020/12/17 00:15:22;;;;;;;;;;;21.50;51.90;;;;;;5054749;28;1358;-61
2020/12/17 00:17:49;;;;;;;;;;;21.50;51.90;;;;;;5054320;28;1291;-62
2020/12/17 00:20:15;;;;;;;;;;;21.50;52.00;;;;;;5031570;28;1967;-62
2020/12/17 00:22:41;;;;;;;;;;;21.50;52.00;;;;;;5036783;28;1478;-62
2020/12/17 00:25:10;;;;;;;;;;;21.40;52.60;;;;;;5036305;28;1108;-60
2020/12/17 00:27:36;;;;;;;;;;;21.40;52.10;;;;;;5036272;28;1355;-63
2020/12/17 00:30:01;;;;;;;;;;;21.40;52.10;;;;;;5036364;28;1076;-61
2020/12/17 00:32:27;;;;;;;;;;;21.40;52.20;;;;;;5036678;28;1358;-63
2020/12/17 00:34:52;;;;;;;;;;;21.40;52.20;;;;;;5036144;28;1124;-63
2020/12/17 00:37:18;;;;;;;;;;;21.40;52.20;;;;;;5054044;28;1373;-62
2020/12/17 00:39:44;;;;;;;;;;;21.40;52.30;;;;;;5054167;28;1961;-62
2020/12/17 00:42:09;;;;;;;;;;;21.30;52.30;;;;;;5036338;28;1408;-62
2020/12/17 00:44:35;;;;;;;;;;;21.30;52.30;;;;;;5054257;28;1135;-62
2020/12/17 00:47:00;;;;;;;;;;;21.30;52.40;;;;;;5018987;28;1332;-59
2020/12/17 00:49:26;;;;;;;;;;;21.30;52.40;;;;;;5048670;28;1389;-61
2020/12/17 00:51:57;;;;;;;;;;;21.30;52.50;;;;;;5046457;28;1308;-63
2020/12/17 00:54:22;;;;;;;;;;;21.30;53.10;;;;;;5036393;28;1187;-62
2020/12/17 00:56:48;;;;;;;;;;;21.30;52.60;;;;;;5046632;28;1390;-62
2020/12/17 00:59:13;;;;;;;;;;;21.20;52.50;;;;;;5036013;28;1894;-62
2020/12/17 01:01:39;;;;;;;;;;;21.20;52.60;;;;;;5054103;28;1313;-61
2020/12/17 01:04:04;;;;;;;;;;;21.20;52.60;;;;;;5035488;28;1306;-62
2020/12/17 01:06:30;;;;;;;;;;;21.20;52.60;;;;;;5053714;28;1227;-63
2020/12/17 01:08:55;;;;;;;;;;;21.20;52.70;;;;;;5036068;28;1104;-62
2020/12/17 01:11:27;;;;;;;;;;;21.20;52.70;;;;;;5035560;28;1413;-58
2020/12/17 01:13:53;;;;;;;;;;;21.20;52.80;;;;;;5053158;28;1188;-60
2020/12/17 01:16:18;;;;;;;;;;;21.20;52.80;;;;;;5053467;28;1262;-63
2020/12/17 01:18:43;;;;;;;;;;;21.10;52.80;;;;;;5053593;28;1163;-62
2020/12/17 01:21:09;;;;;;;;;;;21.10;52.80;;;;;;5047832;28;1914;-60
2020/12/17 01:23:34;;;;;;;;;;;21.10;52.90;;;;;;5053172;28;1502;-61
2020/12/17 01:26:00;;;;;;;;;;;21.10;52.90;;;;;;5053231;28;1389;-61
2020/12/17 01:28:25;;;;;;;;;;;21.10;53.50;;;;;;5053180;28;1327;-62
2020/12/17 01:30:51;;;;;;;;;;;21.10;53.00;;;;;;5052955;28;1291;-62
2020/12/17 01:33:18;;;;;;;;;;;21.10;53.00;;;;;;5053171;28;1335;-64
2020/12/17 01:35:44;;;;;;;;;;;21.10;53.00;;;;;;5053031;28;1092;-62
2020/12/17 01:38:09;;;;;;;;;;;21.00;53.00;;;;;;5052803;28;1269;-62
2020/12/17 01:40:35;;;;;;;;;;;21.00;53.10;;;;;;5053363;28;1910;-62
2020/12/17 01:43:00;;;;;;;;;;;21.00;53.10;;;;;;5052324;28;1354;-60
2020/12/17 01:45:26;;;;;;;;;;;21.00;53.10;;;;;;5052670;28;1123;-61
2020/12/17 01:47:51;;;;;;;;;;;21.00;53.10;;;;;;5052848;28;1355;-60
2020/12/17 01:50:17;;;;;;;;;;;21.00;53.20;;;;;;5022942;28;1213;-59
2020/12/17 01:52:43;;;;;;;;;;;21.00;53.20;;;;;;5032088;28;1116;-62
2020/12/17 01:55:08;;;;;;;;;;;21.00;53.20;;;;;;5038948;28;1217;-61
2020/12/17 01:57:34;;;;;;;;;;;21.00;53.20;;;;;;5050627;28;1697;-60
2020/12/17 02:00:01;;;;;;;;;;;21.00;53.30;;;;;;5034883;28;1879;-61
2020/12/17 02:02:26;;;;;;;;;;;21.00;53.30;;;;;;5052891;28;1321;-62
2020/12/17 02:04:52;;;;;;;;;;;20.90;53.30;;;;;;5034748;28;1392;-62
2020/12/17 02:07:17;;;;;;;;;;;20.90;53.30;;;;;;5052631;28;1363;-63
2020/12/17 02:09:43;;;;;;;;;;;20.90;53.40;;;;;;5034562;28;1351;-61
2020/12/17 02:12:08;;;;;;;;;;;20.90;53.40;;;;;;5034287;28;1152;-62
2020/12/17 02:14:34;;;;;;;;;;;20.90;53.40;;;;;;5052692;28;1314;-63
2020/12/17 02:16:59;;;;;;;;;;;20.90;53.40;;;;;;5034076;28;1195;-62
2020/12/17 02:19:24;;;;;;;;;;;20.90;53.40;;;;;;5048577;28;1918;-62
2020/12/17 02:21:50;;;;;;;;;;;20.90;53.50;;;;;;5032801;28;1227;-62
2020/12/17 02:24:19;;;;;;;;;;;20.90;53.50;;;;;;5032065;28;1500;-65
2020/12/17 02:26:44;;;;;;;;;;;20.90;53.50;;;;;;5032083;28;1403;-59
2020/12/17 02:29:10;;;;;;;;;;;20.90;53.50;;;;;;5032427;28;1327;-61
2020/12/17 02:31:36;;;;;;;;;;;20.90;53.50;;;;;;5032566;28;1178;-61
2020/12/17 02:34:02;;;;;;;;;;;20.90;54.10;;;;;;5032148;28;1112;-62
2020/12/17 02:36:27;;;;;;;;;;;20.80;53.50;;;;;;5032071;28;1389;-58
2020/12/17 02:38:53;;;;;;;;;;;20.80;53.60;;;;;;5032713;28;1405;-62
2020/12/17 02:41:18;;;;;;;;;;;20.80;53.60;;;;;;5031730;28;1894;-61
2020/12/17 02:43:44;;;;;;;;;;;20.90;53.60;;;;;;5032254;28;1092;-62
2020/12/17 02:46:09;;;;;;;;;;;20.80;53.70;;;;;;5031504;28;1280;-60
2020/12/17 02:48:34;;;;;;;;;;;20.80;53.70;;;;;;5032550;28;1360;-62
2020/12/17 02:51:00;;;;;;;;;;;20.80;53.70;;;;;;5032130;28;1206;-62
2020/12/17 02:53:25;;;;;;;;;;;20.80;53.70;;;;;;5031977;28;1319;-61
2020/12/17 02:55:51;;;;;;;;;;;20.80;53.70;;;;;;5037244;28;1140;-62
2020/12/17 02:58:17;;;;;;;;;;;20.80;53.70;;;;;;5051098;28;1355;-63
2020/12/17 03:00:42;;;;;;;;;;;20.80;53.70;;;;;;5051004;28;1989;-62
2020/12/17 03:03:08;;;;;;;;;;;20.80;53.70;;;;;;5050619;28;1180;-61
2020/12/17 03:05:33;;;;;;;;;;;20.80;53.80;;;;;;5051981;28;1159;-64
2020/12/17 03:07:59;;;;;;;;;;;20.80;53.80;;;;;;5050556;28;1307;-63
2020/12/17 03:10:24;;;;;;;;;;;20.70;53.80;;;;;;5055231;28;1370;-62
2020/12/17 03:12:50;;;;;;;;;;;20.80;53.80;;;;;;5054634;28;1090;-62
2020/12/17 03:15:15;;;;;;;;;;;20.80;53.80;;;;;;5055706;28;1347;-62
2020/12/17 03:17:41;;;;;;;;;;;20.70;53.80;;;;;;5079047;28;1357;-62
2020/12/17 03:20:07;;;;;;;;;;;20.70;53.80;;;;;;5049671;28;2801;-61
2020/12/17 03:22:32;;;;;;;;;;;20.70;53.80;;;;;;5055953;28;1337;-62
2020/12/17 03:24:58;;;;;;;;;;;20.70;53.90;;;;;;5055479;28;1327;-62
2020/12/17 03:27:23;;;;;;;;;;;20.70;53.80;;;;;;5055249;28;1207;-60
2020/12/17 03:29:49;;;;;;;;;;;20.70;53.90;;;;;;5055679;28;1391;-63
2020/12/17 03:32:14;;;;;;;;;;;20.70;53.90;;;;;;5055353;28;1358;-62
2020/12/17 03:34:40;;;;;;;;;;;20.70;53.90;;;;;;5054455;28;1131;-62
2020/12/17 03:37:05;;;;;;;;;;;20.70;53.90;;;;;;5055514;28;1421;-62
2020/12/17 03:39:31;;;;;;;;;;;20.70;53.90;;;;;;5042292;28;1969;-60
2020/12/17 03:41:56;;;;;;;;;;;20.70;53.90;;;;;;5055325;28;1385;-63
2020/12/17 03:44:22;;;;;;;;;;;20.70;54.00;;;;;;5055045;28;1257;-62
2020/12/17 03:46:47;;;;;;;;;;;20.70;54.00;;;;;;5053787;28;1339;-65
2020/12/17 03:49:13;;;;;;;;;;;20.70;54.00;;;;;;5050614;28;1312;-61
2020/12/17 03:51:38;;;;;;;;;;;20.70;54.00;;;;;;5046006;28;1289;-62
2020/12/17 03:54:06;;;;;;;;;;;20.60;54.00;;;;;;5054333;28;1294;-62
2020/12/17 03:56:32;;;;;;;;;;;20.70;54.00;;;;;;5047505;28;1291;-62
2020/12/17 03:58:57;;;;;;;;;;;20.70;54.00;;;;;;5053853;28;1906;-61
2020/12/17 04:01:23;;;;;;;;;;;20.70;54.10;;;;;;5055236;28;1158;-62
2020/12/17 04:03:48;;;;;;;;;;;20.70;54.10;;;;;;5054310;28;1348;-62
2020/12/17 04:06:14;;;;;;;;;;;20.70;54.10;;;;;;5053601;28;1312;-64
2020/12/17 04:08:42;;;;;;;;;;;20.60;54.00;;;;;;5054736;28;1313;-62
2020/12/17 04:11:08;;;;;;;;;;;20.70;54.00;;;;;;5054990;28;1067;-64
2020/12/17 04:13:34;;;;;;;;;;;20.70;53.90;;;;;;5053397;28;1296;-63
2020/12/17 04:15:59;;;;;;;;;;;20.70;53.90;;;;;;5056257;28;1254;-61
2020/12/17 04:18:25;;;;;;;;;;;20.70;53.80;;;;;;5056862;28;1366;-61
2020/12/17 04:20:50;;;;;;;;;;;20.80;53.70;;;;;;5057864;28;1985;-63
2020/12/17 04:23:16;;;;;;;;;;;20.90;53.60;;;;;;5054464;28;1155;-63
2020/12/17 04:25:41;;;;;;;;;;;21.00;53.50;;;;;;5036249;28;1532;-60
2020/12/17 04:28:07;;;;;;;;;;;21.10;53.30;;;;;;5053064;28;1300;-62
2020/12/17 04:30:32;;;;;;;;;;;21.20;53.10;;;;;;5054411;28;1363;-62
2020/12/17 04:32:58;;;;;;;;;;;21.20;52.90;;;;;;5054460;28;1136;-62
2020/12/17 04:35:23;;;;;;;;;;;21.40;52.70;;;;;;5064382;28;1083;-62
2020/12/17 04:37:49;;;;;;;;;;;21.40;52.50;;;;;;5074377;28;1370;-63
2020/12/17 04:40:14;;;;;;;;;;;21.50;52.30;;;;;;5074235;28;1969;-60
2020/12/17 04:42:40;;;;;;;;;;;21.60;52.20;;;;;;5074631;28;1175;-62
2020/12/17 04:45:05;;;;;;;;;;;21.70;52.00;;;;;;5073044;28;1075;-62
2020/12/17 04:47:31;;;;;;;;;;;21.70;51.80;;;;;;5074162;28;1367;-63
2020/12/17 04:50:06;;;;;;;;;;;21.80;51.70;;;;;;5064291;28;1312;-63
2020/12/17 04:52:32;;;;;;;;;;;21.80;51.60;;;;;;5052410;28;1521;-61
2020/12/17 04:54:58;;;;;;;;;;;21.90;51.50;;;;;;5052601;28;1398;-62
2020/12/17 04:57:25;;;;;;;;;;;21.90;51.40;;;;;;5053598;28;1377;-60
2020/12/17 04:59:51;;;;;;;;;;;22.00;51.30;;;;;;5053716;28;1905;-65
2020/12/17 05:02:17;;;;;;;;;;;22.00;51.20;;;;;;5053796;28;1182;-61
2020/12/17 05:04:43;;;;;;;;;;;22.00;51.10;;;;;;5053361;28;1096;-62
2020/12/17 05:07:12;;;;;;;;;;;22.10;51.10;;;;;;5054185;28;2011;-63
2020/12/17 05:09:38;;;;;;;;;;;22.10;51.00;;;;;;5052599;28;1290;-61
2020/12/17 05:12:04;;;;;;;;;;;22.20;51.00;;;;;;5053472;28;1355;-61
2020/12/17 05:14:29;;;;;;;;;;;22.20;51.00;;;;;;5052281;28;1020;-62
2020/12/17 05:16:55;;;;;;;;;;;22.20;50.90;;;;;;5052059;28;1407;-60
2020/12/17 05:19:21;;;;;;;;;;;22.20;50.90;;;;;;5053843;28;1969;-61
2020/12/17 05:21:47;;;;;;;;;;;22.20;50.80;;;;;;5053116;28;1096;-62
2020/12/17 05:24:12;;;;;;;;;;;22.30;50.80;;;;;;5052261;28;1282;-60
2020/12/17 05:26:38;;;;;;;;;;;22.30;51.40;;;;;;5051572;28;1395;-60
2020/12/17 05:29:03;;;;;;;;;;;22.30;50.80;;;;;;5051750;28;1263;-62
2020/12/17 05:31:31;;;;;;;;;;;22.30;50.70;;;;;;5052020;28;1329;-58
2020/12/17 05:33:59;;;;;;;;;;;22.40;50.70;;;;;;5053252;28;1096;-61
2020/12/17 05:36:25;;;;;;;;;;;22.30;50.70;;;;;;5051654;28;1371;-62
2020/12/17 05:38:54;;;;;;;;;;;22.40;50.70;;;;;;5051773;28;1139;-62
2020/12/17 05:41:22;;;;;;;;;;;22.40;50.70;;;;;;5052111;28;1890;-60
2020/12/17 05:43:48;;;;;;;;;;;22.40;50.70;;;;;;5051778;28;1379;-62
2020/12/17 05:46:13;;;;;;;;;;;22.40;50.70;;;;;;5052672;28;1276;-62
2020/12/17 05:48:39;;;;;;;;;;;22.40;50.70;;;;;;5035105;28;1372;-62
2020/12/17 05:51:04;;;;;;;;;;;22.40;50.70;;;;;;5052675;28;1191;-61
2020/12/17 05:53:30;;;;;;;;;;;22.40;50.70;;;;;;5052948;28;1080;-62
2020/12/17 05:56:13;;;;;;;;;;;22.40;50.70;;;;;;5051149;28;1348;-62
2020/12/17 05:58:39;;;;;;;;;;;22.40;50.70;;;;;;5034958;28;1207;-62
2020/12/17 06:01:12;;;;;;;;;;;22.40;50.80;;;;;;5051600;28;1898;-61
2020/12/17 06:03:41;;;;;;;;;;;22.40;50.80;;;;;;5051529;28;1084;-62
2020/12/17 06:06:07;;;;;;;;;;;22.40;50.90;;;;;;5051432;28;1393;-62
2020/12/17 06:08:34;;;;;;;;;;;22.30;51.40;;;;;;5051434;28;1143;-62
2020/12/17 06:11:02;;;;;;;;;;;22.40;51.00;;;;;;5052724;28;1072;-62
2020/12/17 06:13:27;;;;;;;;;;;22.30;51.00;;;;;;5051192;28;1264;-62
2020/12/17 06:15:53;;;;;;;;;;;22.30;51.00;;;;;;5050913;28;1301;-62
2020/12/17 06:18:18;;;;;;;;;;;22.30;51.10;;;;;;5052399;28;1330;-62
2020/12/17 06:20:44;;;;;;;;;;;22.30;51.10;;;;;;5011651;28;1976;-62
2020/12/17 06:23:10;;;;;;;;;;;22.20;51.10;;;;;;5034683;28;1127;-61
2020/12/17 06:25:36;;;;;;;;;;;22.20;51.20;;;;;;5052103;28;1345;-63
2020/12/17 06:28:01;;;;;;;;;;;22.20;51.20;;;;;;5052174;28;1447;-62
2020/12/17 06:30:27;;;;;;;;;;;22.20;51.30;;;;;;5043895;28;1155;-63
2020/12/17 06:32:53;;;;;;;;;;;22.20;51.30;;;;;;5029595;28;1247;-62
2020/12/17 06:35:28;;;;;;;;;;;22.20;51.30;;;;;;5034447;28;1297;-62
2020/12/17 06:37:54;;;;;;;;;;;22.20;51.40;;;;;;5052172;28;1299;-62
2020/12/17 06:40:26;;;;;;;;;;;22.10;51.40;;;;;;5013080;28;1906;-63
2020/12/17 06:42:52;;;;;;;;;;;22.10;51.40;;;;;;5035833;28;977;-61
2020/12/17 06:45:24;;;;;;;;;;;22.10;51.50;;;;;;5025554;28;1041;-64
2020/12/17 06:47:49;;;;;;;;;;;22.10;51.60;;;;;;5050656;28;1363;-63
2020/12/17 06:50:28;;;;;;;;;;;22.10;51.60;;;;;;5021842;28;1215;-64
2020/12/17 06:53:03;;;;;;;;;;;22.10;51.60;;;;;;5030237;28;1293;-65
2020/12/17 06:55:45;;;;;;;;;;;22.00;51.60;;;;;;5038683;28;1167;-64
2020/12/17 06:58:23;;;;;;;;;;;22.00;46.50;;;;;;5044786;28;1217;-64
2020/12/17 07:00:49;;;;;;;;;;;21.80;44.70;;;;;;5050939;28;2025;-64
2020/12/17 07:03:33;;;;;;;;;;;21.70;42.20;;;;;;5020477;28;1349;-63
2020/12/17 07:06:13;;;;;;;;;;;21.60;40.40;;;;;;5026481;28;1296;-64
2020/12/17 07:08:39;;;;;;;;;;;21.50;42.30;;;;;;5051668;28;1319;-64
2020/12/17 07:11:07;;;;;;;;;;;21.40;43.10;;;;;;5051439;28;1375;-63
2020/12/17 07:13:41;;;;;;;;;;;21.40;43.80;;;;;;5049336;28;1370;-63
2020/12/17 07:16:16;;;;;;;;;;;21.40;44.30;;;;;;5053236;28;1350;-62
2020/12/17 07:18:42;;;;;;;;;;;21.40;44.90;;;;;;5053143;28;1330;-63
2020/12/17 07:21:07;;;;;;;;;;;21.50;45.40;;;;;;5050944;28;1902;-63
2020/12/17 07:23:33;;;;;;;;;;;21.50;45.90;;;;;;5049396;28;1409;-63
2020/12/17 07:26:19;;;;;;;;;;;21.50;46.20;;;;;;5047882;28;1356;-64
2020/12/17 07:28:51;;;;;;;;;;;21.50;46.50;;;;;;5048960;28;1355;-63
2020/12/17 07:31:26;;;;;;;;;;;21.50;46.90;;;;;;5047861;28;1339;-64
2020/12/17 07:33:51;;;;;;;;;;;21.50;47.10;;;;;;5049510;28;1284;-63
2020/12/17 07:36:17;;;;;;;;;;;21.50;47.40;;;;;;5034377;28;1395;-64
2020/12/17 07:38:42;;;;;;;;;;;21.50;47.60;;;;;;5043124;28;1175;-64
2020/12/17 07:41:23;;;;;;;;;;;21.50;47.70;;;;;;5070030;28;1893;-63
2020/12/17 07:43:49;;;;;;;;;;;21.50;47.90;;;;;;5067720;28;1158;-64
2020/12/17 07:46:14;;;;;;;;;;;21.50;48.20;;;;;;5065532;28;1294;-63
2020/12/17 07:48:54;;;;;;;;;;;21.50;48.30;;;;;;5068051;28;1351;-63
2020/12/17 07:51:20;;;;;;;;;;;21.50;48.40;;;;;;5037289;28;1433;-62
2020/12/17 07:53:46;;;;;;;;;;;21.50;48.60;;;;;;5048779;28;1103;-62
2020/12/17 07:56:11;;;;;;;;;;;21.40;48.70;;;;;;5051916;28;1372;-64
2020/12/17 07:58:37;;;;;;;;;;;21.40;48.80;;;;;;5067300;28;1317;-64
2020/12/17 08:01:03;;;;;;;;;;;21.40;48.90;;;;;;5053037;28;2051;-63
2020/12/17 08:03:28;;;;;;;;;;;21.40;49.00;;;;;;5052797;28;1318;-63
2020/12/17 08:06:13;;;;;;;;;;;21.40;49.10;;;;;;5052583;28;1283;-64
2020/12/17 08:08:39;;;;;;;;;;;21.40;50.00;;;;;;5035917;28;1342;-64
2020/12/17 08:11:05;;;;;;;;;;;21.40;49.50;;;;;;5053376;28;1445;-65
2020/12/17 08:13:30;;;;;;;;;;;21.40;49.60;;;;;;5055966;28;1357;-64
2020/12/17 08:15:56;;;;;;;;;;;21.50;49.50;;;;;;5045004;28;1274;-64
2020/12/17 08:18:25;;;;;;;;;;;21.60;49.60;;;;;;5048244;28;1312;-65
2020/12/17 08:20:59;;;;;;;;;;;21.60;49.60;;;;;;5052563;28;1969;-65
2020/12/17 08:23:26;;;;;;;;;;;21.70;49.70;;;;;;5033114;28;1361;-64
2020/12/17 08:25:52;;;;;;;;;;;21.70;49.70;;;;;;5035203;28;1308;-64
2020/12/17 08:28:17;;;;;;;;;;;21.80;50.00;;;;;;5051789;28;1685;-65
2020/12/17 08:30:43;;;;;;;;;;;21.90;49.80;;;;;;5034901;28;1391;-64
2020/12/17 08:33:08;;;;;;;;;;;21.90;49.70;;;;;;5040578;28;1312;-64
2020/12/17 08:35:34;;;;;;;;;;;22.00;49.80;;;;;;5073009;28;1263;-64
2020/12/17 08:38:00;;;;;;;;;;;22.10;49.80;;;;;;5055405;28;1452;-65
2020/12/17 08:40:26;;;;;;;;;;;22.10;49.80;;;;;;5055975;28;1898;-64
2020/12/17 08:42:55;;;;;;;;;;;22.20;49.80;;;;;;5072902;28;1082;-64
2020/12/17 08:45:21;;;;;;;;;;;22.20;49.70;;;;;;5073730;28;1267;-64
2020/12/17 08:47:47;;;;;;;;;;;22.20;49.70;;;;;;5072675;28;1228;-65
2020/12/17 08:50:12;;;;;;;;;;;22.30;49.80;;;;;;5060398;28;1279;-64
2020/12/17 08:52:38;;;;;;;;;;;22.30;49.90;;;;;;5053304;28;1325;-64
2020/12/17 08:55:04;;;;;;;;;;;22.30;49.90;;;;;;5052921;28;1279;-64
2020/12/17 08:57:30;;;;;;;;;;;22.30;50.00;;;;;;5053730;28;1374;-65
2020/12/17 08:59:55;;;;;;;;;;;22.30;50.00;;;;;;5052741;28;1902;-64
2020/12/17 09:02:27;;;;;;;;;;;22.40;50.10;;;;;;5053194;28;1296;-64
2020/12/17 09:04:53;;;;;;;;;;;22.40;50.10;;;;;;5045409;28;1360;-64
2020/12/17 09:07:22;;;;;;;;;;;22.40;50.20;;;;;;5051818;28;1366;-64
2020/12/17 09:09:48;;;;;;;;;;;22.40;50.20;;;;;;5052259;28;1311;-64
2020/12/17 09:12:13;;;;;;;;;;;22.40;50.30;;;;;;5072465;28;921;-64
2020/12/17 09:14:39;;;;;;;;;;;22.40;50.40;;;;;;5071948;28;1360;-65
2020/12/17 09:17:07;;;;;;;;;;;22.40;50.50;;;;;;5062581;28;1293;-62
2020/12/17 09:19:33;;;;;;;;;;;22.40;50.80;;;;;;5068877;28;1977;-63
2020/12/17 09:22:00;;;;;;;;;;;22.30;50.80;;;;;;5053202;28;1439;-66
2020/12/17 09:24:25;;;;;;;;;;;22.30;50.90;;;;;;5053018;28;1378;-66
2020/12/17 09:26:51;;;;;;;;;;;22.30;51.20;;;;;;5035891;28;1363;-66
2020/12/17 09:29:16;;;;;;;;;;;22.30;50.90;;;;;;5031097;28;1932;-64
2020/12/17 09:31:42;;;;;;;;;;;22.30;51.00;;;;;;5052748;28;1176;-65
2020/12/17 09:34:11;;;;;;;;;;;22.30;51.00;;;;;;5046498;28;1216;-66
2020/12/17 09:36:37;;;;;;;;;;;22.30;51.20;;;;;;5051688;28;1367;-66
2020/12/17 09:39:04;;;;;;;;;;;22.30;51.30;;;;;;5069086;28;1120;-66
2020/12/17 09:41:30;;;;;;;;;;;22.30;51.40;;;;;;5053286;28;1963;-67
2020/12/17 09:43:55;;;;;;;;;;;22.30;51.80;;;;;;5053499;28;1351;-66
2020/12/17 09:46:21;;;;;;;;;;;22.20;51.90;;;;;;5035134;28;1304;-67
2020/12/17 09:48:46;;;;;;;;;;;22.20;52.00;;;;;;5019568;28;1407;-66
2020/12/17 09:51:12;;;;;;;;;;;22.20;52.00;;;;;;5053586;28;1183;-66
2020/12/17 09:53:38;;;;;;;;;;;22.20;52.10;;;;;;5052874;28;1275;-64
2020/12/17 09:56:04;;;;;;;;;;;22.20;52.00;;;;;;5035119;28;1349;-65
2020/12/17 09:58:29;;;;;;;;;;;22.10;52.20;;;;;;5035137;28;1327;-65
2020/12/17 10:00:55;;;;;;;;;;;22.20;52.50;;;;;;5052837;28;1968;-66
2020/12/17 10:03:20;;;;;;;;;;;22.10;52.40;;;;;;5052931;28;1574;-66
2020/12/17 10:05:46;;;;;;;;;;;22.10;52.50;;;;;;5034340;28;1317;-64
2020/12/17 10:08:11;;;;;;;;;;;22.10;52.30;;;;;;5034565;28;1396;-66
2020/12/17 10:10:37;;;;;;;;;;;22.10;52.60;;;;;;5053058;28;1318;-65
2020/12/17 10:13:03;;;;;;;;;;;22.10;52.50;;;;;;5048004;28;1376;-65
2020/12/17 10:15:28;;;;;;;;;;;22.10;52.30;;;;;;5054666;28;1388;-65
2020/12/17 10:17:54;;;;;;;;;;;22.10;52.30;;;;;;5036872;28;1305;-65
2020/12/17 10:20:19;;;;;;;;;;;22.10;52.30;;;;;;5041217;28;2000;-66
2020/12/17 10:22:45;;;;;;;;;;;22.10;52.20;;;;;;5016014;28;1323;-65
2020/12/17 10:25:10;;;;;;;;;;;22.20;52.30;;;;;;5033386;28;1321;-66
2020/12/17 10:27:36;;;;;;;;;;;22.20;52.30;;;;;;5032811;28;1314;-66
2020/12/17 10:30:01;;;;;;;;;;;22.20;52.50;;;;;;5015293;28;1312;-65
2020/12/17 10:32:27;;;;;;;;;;;22.20;52.40;;;;;;5034131;28;1312;-65
2020/12/17 10:34:52;;;;;;;;;;;22.30;52.30;;;;;;5015152;28;1318;-65
2020/12/17 10:37:18;;;;;;;;;;;22.30;52.30;;;;;;5015760;28;1422;-65
2020/12/17 10:39:44;;;;;;;;;;;22.30;52.50;;;;;;4999593;28;1906;-65
2020/12/17 10:42:10;;;;;;;;;;;22.30;52.30;;;;;;5015876;28;1424;-65
2020/12/17 10:44:36;;;;;;;;;;;22.40;52.30;;;;;;5014924;28;1169;-66
2020/12/17 10:47:03;;;;;;;;;;;22.40;52.20;;;;;;5010249;28;1708;-66
2020/12/17 10:49:28;;;;;;;;;;;22.40;52.20;;;;;;5029004;28;1328;-65
2020/12/17 10:51:54;;;;;;;;;;;22.40;52.20;;;;;;5033631;28;1285;-65
2020/12/17 10:54:19;;;;;;;;;;;22.40;52.20;;;;;;5032239;28;1328;-65
2020/12/17 10:56:45;;;;;;;;;;;22.40;52.30;;;;;;5026860;28;1354;-65
2020/12/17 10:59:11;;;;;;;;;;;22.40;52.60;;;;;;5052063;28;1324;-65
2020/12/17 11:01:36;;;;;;;;;;;22.40;52.50;;;;;;5052757;28;1906;-66
2020/12/17 11:04:02;;;;;;;;;;;22.40;52.70;;;;;;5050866;28;1360;-63
2020/12/17 11:06:27;;;;;;;;;;;22.40;52.60;;;;;;5034422;28;1377;-66
2020/12/17 11:08:53;;;;;;;;;;;22.40;52.60;;;;;;5035342;28;1375;-64
2020/12/17 11:11:18;;;;;;;;;;;22.40;52.60;;;;;;5053075;28;1331;-65
2020/12/17 11:13:44;;;;;;;;;;;22.40;52.60;;;;;;5052673;28;1307;-65
2020/12/17 11:16:10;;;;;;;;;;;22.40;52.70;;;;;;5054444;28;1346;-64
2020/12/17 11:18:35;;;;;;;;;;;22.40;52.80;;;;;;5071574;28;1419;-65
2020/12/17 11:21:00;;;;;;;;;;;22.40;52.70;;;;;;5055122;28;1969;-66
2020/12/17 11:23:26;;;;;;;;;;;22.40;52.80;;;;;;5050902;28;1359;-66
2020/12/17 11:25:51;;;;;;;;;;;22.40;52.70;;;;;;5052091;28;1366;-65
2020/12/17 11:28:17;;;;;;;;;;;22.40;52.80;;;;;;5052122;28;1385;-65
2020/12/17 11:30:42;;;;;;;;;;;22.40;52.80;;;;;;5055054;28;1410;-65
2020/12/17 11:33:08;;;;;;;;;;;22.40;52.80;;;;;;5055560;28;1324;-64
2020/12/17 11:35:33;;;;;;;;;;;22.40;52.80;;;;;;5056843;28;1359;-66
2020/12/17 11:37:59;;;;;;;;;;;22.40;52.80;;;;;;5056893;28;1415;-66
2020/12/17 11:40:24;;;;;;;;;;;22.40;52.80;;;;;;5057874;28;1959;-65
2020/12/17 11:42:50;;;;;;;;;;;22.40;52.90;;;;;;5054885;28;1327;-65
2020/12/17 11:45:16;;;;;;;;;;;22.30;53.30;;;;;;5056448;28;1303;-66
2020/12/17 11:47:41;;;;;;;;;;;22.40;53.40;;;;;;5056372;28;1375;-65
2020/12/17 11:50:07;;;;;;;;;;;22.40;53.40;;;;;;5055346;28;1248;-66
2020/12/17 11:52:33;;;;;;;;;;;22.40;53.30;;;;;;5038706;28;1317;-64
2020/12/17 11:54:58;;;;;;;;;;;22.40;53.40;;;;;;5054753;28;1088;-64
2020/12/17 11:57:24;;;;;;;;;;;22.40;53.40;;;;;;5038661;28;1354;-65
2020/12/17 11:59:49;;;;;;;;;;;22.40;53.50;;;;;;5037494;28;1902;-66
2020/12/17 12:02:15;;;;;;;;;;;22.40;53.50;;;;;;5055289;28;1342;-65
2020/12/17 12:04:40;;;;;;;;;;;22.40;53.50;;;;;;5053144;28;1167;-65
2020/12/17 12:07:06;;;;;;;;;;;22.40;53.70;;;;;;5054545;28;1196;-65
2020/12/17 12:09:31;;;;;;;;;;;22.40;53.80;;;;;;5037607;28;1374;-65
2020/12/17 12:11:57;;;;;;;;;;;22.40;54.00;;;;;;5055061;28;1005;-65
2020/12/17 12:14:22;;;;;;;;;;;22.40;54.10;;;;;;5052011;28;1287;-65
2020/12/17 12:16:48;;;;;;;;;;;22.40;54.60;;;;;;5053157;28;1303;-65
2020/12/17 12:19:13;;;;;;;;;;;22.40;54.40;;;;;;5052000;28;1334;-65
2020/12/17 12:21:39;;;;;;;;;;;22.30;54.60;;;;;;5053235;28;1988;-64
2020/12/17 12:24:04;;;;;;;;;;;22.30;54.30;;;;;;5037439;28;1303;-63
2020/12/17 12:26:29;;;;;;;;;;;22.40;54.30;;;;;;5054609;28;1402;-63
2020/12/17 12:28:55;;;;;;;;;;;22.30;54.40;;;;;;5054236;28;1394;-62
2020/12/17 12:31:21;;;;;;;;;;;22.30;54.30;;;;;;5036227;28;1999;-63
2020/12/17 12:33:46;;;;;;;;;;;22.30;54.40;;;;;;5033789;28;1336;-64
2020/12/17 12:36:12;;;;;;;;;;;22.30;54.40;;;;;;5036930;28;1371;-63
2020/12/17 12:38:38;;;;;;;;;;;22.30;54.60;;;;;;5037227;28;1257;-64
2020/12/17 12:41:04;;;;;;;;;;;22.20;54.60;;;;;;5036863;28;1906;-62
2020/12/17 12:43:29;;;;;;;;;;;22.20;54.60;;;;;;5036643;28;1296;-62
2020/12/17 12:45:55;;;;;;;;;;;22.20;54.70;;;;;;5055033;28;1312;-63
2020/12/17 12:48:20;;;;;;;;;;;22.20;54.80;;;;;;5038376;28;1300;-64
2020/12/17 12:50:46;;;;;;;;;;;22.20;54.60;;;;;;5026759;28;1265;-64
2020/12/17 12:53:12;;;;;;;;;;;22.20;55.00;;;;;;5057947;28;1099;-64
2020/12/17 12:55:37;;;;;;;;;;;22.20;54.90;;;;;;5032157;28;1334;-65
2020/12/17 12:58:03;;;;;;;;;;;22.20;55.00;;;;;;5058105;28;1344;-64
2020/12/17 13:00:28;;;;;;;;;;;22.20;54.90;;;;;;5037678;28;1972;-64
2020/12/17 13:02:54;;;;;;;;;;;22.10;54.90;;;;;;5045705;28;1302;-63
2020/12/17 13:05:20;;;;;;;;;;;22.20;54.90;;;;;;5055075;28;1352;-64
2020/12/17 13:07:45;;;;;;;;;;;22.10;48.90;;;;;;5021187;28;1320;-65
2020/12/17 13:10:11;;;;;;;;;;;22.00;47.20;;;;;;5037412;28;1321;-64
2020/12/17 13:12:37;;;;;;;;;;;21.90;46.00;;;;;;5038008;28;1292;-65
2020/12/17 13:15:03;;;;;;;;;;;21.80;45.10;;;;;;5055724;28;1314;-64
2020/12/17 13:17:28;;;;;;;;;;;21.80;44.20;;;;;;5037738;28;1292;-63
2020/12/17 13:19:54;;;;;;;;;;;21.70;43.80;;;;;;5032656;28;1902;-65
2020/12/17 13:22:19;;;;;;;;;;;21.60;43.20;;;;;;5037076;28;1340;-64
2020/12/17 13:24:45;;;;;;;;;;;21.60;42.90;;;;;;5037051;28;1272;-64
2020/12/17 13:27:10;;;;;;;;;;;21.50;42.60;;;;;;5054712;28;1441;-63
2020/12/17 13:29:36;;;;;;;;;;;21.40;42.10;;;;;;5037252;28;1412;-65
2020/12/17 13:32:01;;;;;;;;;;;21.40;41.90;;;;;;5055049;28;1257;-65
2020/12/17 13:34:27;;;;;;;;;;;21.30;41.50;;;;;;5036539;28;1406;-64
2020/12/17 13:36:52;;;;;;;;;;;21.30;41.50;;;;;;5036727;28;1367;-65
2020/12/17 13:39:18;;;;;;;;;;;21.20;41.70;;;;;;5055116;28;1310;-64
2020/12/17 13:41:48;;;;;;;;;;;21.20;41.60;;;;;;5055335;28;2032;-65
2020/12/17 13:44:13;;;;;;;;;;;21.10;41.30;;;;;;5016456;28;1948;-64
2020/12/17 13:46:39;;;;;;;;;;;21.10;41.30;;;;;;5034925;28;1288;-63
2020/12/17 13:49:04;;;;;;;;;;;21.00;40.90;;;;;;5043354;28;1264;-64
2020/12/17 13:51:31;;;;;;;;;;;21.00;40.70;;;;;;5042636;28;1292;-65
2020/12/17 13:53:57;;;;;;;;;;;21.00;40.70;;;;;;5051270;28;1249;-63
2020/12/17 13:56:31;;;;;;;;;;;21.00;40.60;;;;;;5045846;28;1295;-64
2020/12/17 13:58:56;;;;;;;;;;;20.90;40.50;;;;;;5053400;28;1318;-64
2020/12/17 14:01:22;;;;;;;;;;;20.90;40.50;;;;;;5033825;28;1960;-65
2020/12/17 14:03:48;;;;;;;;;;;20.80;40.40;;;;;;5052151;28;1281;-64
2020/12/17 14:06:21;;;;;;;;;;;20.80;40.40;;;;;;5052492;28;1378;-65
2020/12/17 14:08:46;;;;;;;;;;;20.80;40.40;;;;;;5034925;28;1261;-66
2020/12/17 14:11:13;;;;;;;;;;;20.70;40.50;;;;;;5052885;28;1326;-64
2020/12/17 14:13:38;;;;;;;;;;;20.70;41.30;;;;;;5034867;28;1334;-65
2020/12/17 14:16:04;;;;;;;;;;;20.70;40.40;;;;;;5036158;28;1291;-64
2020/12/17 14:18:29;;;;;;;;;;;20.70;40.10;;;;;;5072372;28;1365;-64
2020/12/17 14:20:55;;;;;;;;;;;20.60;40.10;;;;;;5055709;28;1910;-65
2020/12/17 14:23:20;;;;;;;;;;;20.60;40.10;;;;;;5050287;28;1349;-64
2020/12/17 14:25:46;;;;;;;;;;;20.60;41.30;;;;;;5050495;28;1299;-64